Mortimer, North Carolina
Current Conditions -  °F | °C
As of 3:15 PM on Friday 31 Oct 2014 (Local Time) from KMRN Reporting Station
Overcast Overcast  
Wind Chill: 57°   Ceiling: 6500
Heat Index: 57°   Visibility: 10mi
Dew Point: 43°   Wind: 3mph
Humidity: 59%   Direction: 150°SSE
Pressure: 29.87"   Gusts: NA
Location:  35.9726°N, 81.5331°W
Report Text: KMRN 311915Z AUTO 15003KT 10SM BKN065 OVC100 14/06 A2987 RMK AO2 T01400060
Loading
Personal Weather Stations






























Interactive Weather Map
Tropical Storm Tracking
New forecast layout! Learn more

10-Day Weather Forecast

Advertisements
Track Severe Weather on mobile